createdAt,value
2024-02-29T00:03:05.327Z,30.00
2024-02-29T00:06:36.293Z,29.70
2024-02-29T00:10:06.395Z,31.60
2024-02-29T00:13:35.328Z,31.60
2024-02-29T00:17:08.033Z,31.70
2024-02-29T00:20:37.322Z,34.90
2024-02-29T00:27:39.345Z,34.70
2024-02-29T00:31:10.657Z,34.80
2024-02-29T00:34:43.723Z,36.80
2024-02-29T00:38:04.290Z,32.70
2024-02-29T00:41:35.354Z,31.60
2024-02-29T00:45:05.264Z,34.80
2024-02-29T00:48:38.354Z,35.60
2024-02-29T00:55:24.300Z,31.40
2024-02-29T00:58:57.302Z,32.00
2024-02-29T01:02:30.263Z,30.30
2024-02-29T01:09:36.377Z,31.40
2024-02-29T01:13:09.294Z,31.20
2024-02-29T01:16:39.231Z,28.90
2024-02-29T01:20:11.276Z,28.30
2024-02-29T01:23:40.203Z,29.60
2024-02-29T01:27:09.186Z,29.50
2024-02-29T01:30:42.226Z,30.80
2024-02-29T01:34:18.029Z,28.30
2024-02-29T01:37:46.235Z,28.40
2024-02-29T01:41:15.181Z,29.60
2024-02-29T01:44:45.243Z,30.90
2024-02-29T01:51:43.240Z,29.50
2024-02-29T01:55:13.220Z,28.30
2024-02-29T02:02:36.159Z,26.20
2024-02-29T02:06:09.216Z,23.10
2024-02-29T02:12:54.207Z,24.00
2024-02-29T02:16:27.181Z,24.30
2024-02-29T02:19:42.099Z,25.70
2024-02-29T02:22:51.101Z,27.40
2024-02-29T02:26:20.143Z,26.30
2024-02-29T02:33:11.198Z,25.20
2024-02-29T02:36:45.134Z,23.10
2024-02-29T02:40:15.197Z,22.80
2024-02-29T02:43:44.109Z,22.60
2024-02-29T02:47:17.428Z,25.20
2024-02-29T02:50:47.200Z,25.10
2024-02-29T02:54:16.102Z,31.10
2024-02-29T02:57:47.196Z,23.10
2024-02-29T03:01:10.491Z,21.60
2024-02-29T03:04:27.956Z,23.50
2024-02-29T03:07:58.146Z,23.20
2024-02-29T03:11:31.259Z,24.20
2024-02-29T03:14:56.029Z,26.30
2024-02-29T03:18:26.082Z,25.50
2024-02-29T03:21:47.183Z,22.80
2024-02-29T03:25:16.168Z,23.40
2024-02-29T03:28:45.126Z,25.40
2024-02-29T03:32:14.149Z,23.40
2024-02-29T03:35:48.099Z,25.80
2024-02-29T03:39:11.032Z,25.60
2024-02-29T03:42:36.135Z,23.50
2024-02-29T03:45:56.132Z,21.70
2024-02-29T03:49:28.088Z,20.80
2024-02-29T03:52:48.072Z,25.10
2024-02-29T03:56:17.122Z,24.10
2024-02-29T03:59:46.119Z,29.10
2024-02-29T04:03:16.072Z,26.70
2024-02-29T04:06:48.096Z,25.40
2024-02-29T04:10:12.285Z,26.90
2024-02-29T04:13:40.982Z,36.50
2024-02-29T04:17:09.174Z,31.60
2024-02-29T04:20:39.066Z,30.70
2024-02-29T04:24:08.056Z,33.10
2024-02-29T04:27:36.156Z,38.30
2024-02-29T04:31:06.043Z,29.50
2024-02-29T04:34:38.058Z,28.80
2024-02-29T04:38:07.066Z,26.00
2024-02-29T04:41:39.135Z,26.80
2024-02-29T04:45:08.053Z,27.80
2024-02-29T04:48:41.007Z,25.30
2024-02-29T04:52:16.116Z,31.70
2024-02-29T04:55:45.054Z,28.30
2024-02-29T04:59:18.015Z,29.40
2024-02-29T05:06:16.980Z,26.30
2024-02-29T05:09:48.925Z,29.30
2024-02-29T05:13:19.112Z,25.30
2024-02-29T05:16:48.090Z,26.10
2024-02-29T05:20:17.030Z,26.20
2024-02-29T05:23:47.940Z,25.50
2024-02-29T05:30:50.054Z,24.30
2024-02-29T05:34:19.195Z,27.00
2024-02-29T05:37:48.009Z,26.20
2024-02-29T05:41:17.239Z,25.50
2024-02-29T05:44:48.992Z,26.40
2024-02-29T05:48:18.989Z,26.50
2024-02-29T05:51:52.768Z,23.60
2024-02-29T05:55:20.089Z,24.50
2024-02-29T05:58:49.023Z,24.80
2024-02-29T06:02:20.973Z,33.80
2024-02-29T06:05:52.941Z,30.70
2024-02-29T06:09:22.933Z,26.20
2024-02-29T06:14:03.935Z,26.00
2024-02-29T06:17:33.818Z,24.40
2024-02-29T06:21:02.807Z,26.00
2024-02-29T06:24:35.740Z,24.60
2024-02-29T06:28:06.872Z,25.90
2024-02-29T06:31:35.871Z,25.20
2024-02-29T06:35:08.794Z,26.10
2024-02-29T06:38:36.729Z,26.00
2024-02-29T06:42:06.920Z,24.60
2024-02-29T06:45:27.753Z,23.90
2024-02-29T06:48:34.084Z,24.50
2024-02-29T06:51:56.873Z,23.60
2024-02-29T06:55:26.857Z,23.20
2024-02-29T07:02:28.745Z,25.90
2024-02-29T07:05:58.843Z,24.30
2024-02-29T07:12:56.808Z,23.60
2024-02-29T07:16:27.730Z,28.30
2024-02-29T07:19:58.771Z,24.00
2024-02-29T07:23:04.644Z,23.70
2024-02-29T07:26:21.851Z,25.80
2024-02-29T07:29:39.187Z,23.90
2024-02-29T07:35:32.880Z,23.70
2024-02-29T07:38:40.267Z,21.30
2024-02-29T07:43:10.511Z,23.40
2024-02-29T07:46:12.145Z,21.60
2024-02-29T07:49:03.974Z,21.20
2024-02-29T07:52:01.687Z,22.50
2024-02-29T07:55:16.080Z,21.30
2024-02-29T07:58:32.839Z,23.20
2024-02-29T08:02:00.892Z,23.00
2024-02-29T08:05:27.672Z,24.30
2024-02-29T08:08:57.797Z,29.30
2024-02-29T08:15:47.275Z,28.80
2024-02-29T08:19:13.682Z,29.40
2024-02-29T08:22:42.023Z,32.90
2024-02-29T08:26:12.624Z,31.80
2024-02-29T08:29:39.661Z,30.10
2024-02-29T08:33:07.765Z,31.00
